Ana Sayfa
METAR-TAF:

METAR-TAF

Havaalanları :

Anchorage, Alaska, Amerika Birleşik Devletleri

Enlem: 61-13N, Boylam: 149-51W, yükseklik: 42 m

Güncel hava durumu gözlemi

Rapor saat 06:53 UTC de 11 dakika önce yapıldı.
Rüzgar kuzey/kuzeybatıdan 3 kt
Sıcaklık 5°C
Nem 52%
Basınç 1017 hPa
Görüş mesafesi: 16.1 km
10000 ft yükseklikte parçalı bulutlu
20000 ft yükseklikte parçalı çok bulutlu

METAR: PAMR 200653Z 34003KT 10SM SCT100 BKN200 05/M04 A3004 RMK AO2 SLP176 T00501039

Saat: 23:04 (07:04 UTC)


TAF: eksik

4.000'den fazla havaalanı için hava durumu gözlemleri ve tahminleri (METAR ve TAF raporları).

Kullanılabilir istasyonlar harita üzerinde sarı ve kırmızı noktalarla gösterilir.

İstasyonun adını görmek için fareyi noktanın üzerinde gezdirin.

Sonrasında hava gözlem ve tahminlerini görmek için tıklayın.

Haritayı değiştirmek için: yaklaştırmak için siyah artı işaretli yeşil düğmeye ve uzaklaştırmak için de eksi işaretli düğmeye hızla tıklayın; bitişik haritalar için yeşil okları kullanın.


METAR-TAF: